createdAt,value
2018-11-07T00:01:58.998Z,13.29
2018-11-07T00:04:26.565Z,13.18
2018-11-07T00:06:54.168Z,13.27
2018-11-07T00:09:21.763Z,13.25
2018-11-07T00:11:52.056Z,13.42
2018-11-07T00:14:19.792Z,13.35
2018-11-07T00:16:47.322Z,13.43
2018-11-07T00:19:14.907Z,13.48
2018-11-07T00:21:42.444Z,13.57
2018-11-07T00:24:10.048Z,13.52
2018-11-07T00:26:37.574Z,13.66
2018-11-07T00:29:05.181Z,13.77
2018-11-07T00:31:32.704Z,13.65
2018-11-07T00:34:01.454Z,13.60
2018-11-07T00:36:29.600Z,13.45
2018-11-07T00:38:57.192Z,13.67
2018-11-07T00:41:24.766Z,13.71
2018-11-07T00:43:52.332Z,13.64
2018-11-07T00:46:19.876Z,13.66
2018-11-07T00:48:47.457Z,13.58
2018-11-07T00:51:15.023Z,13.22
2018-11-07T00:53:42.599Z,13.65
2018-11-07T00:56:10.219Z,13.61
2018-11-07T00:58:42.457Z,13.73
2018-11-07T01:01:10.036Z,13.57
2018-11-07T01:03:37.638Z,13.59
2018-11-07T01:06:05.175Z,13.63
2018-11-07T01:08:32.716Z,13.79
2018-11-07T01:11:00.348Z,13.67
2018-11-07T01:13:27.959Z,13.83
2018-11-07T01:15:55.560Z,13.95
2018-11-07T01:18:23.089Z,13.93
2018-11-07T01:20:50.673Z,13.51
2018-11-07T01:23:18.234Z,13.62
2018-11-07T01:25:45.842Z,13.53
2018-11-07T01:28:13.523Z,13.47
2018-11-07T01:30:42.132Z,13.62
2018-11-07T01:33:09.741Z,13.75
2018-11-07T01:35:37.305Z,13.69
2018-11-07T01:38:04.831Z,13.73
2018-11-07T01:40:32.405Z,13.29
2018-11-07T01:43:00.016Z,13.33
2018-11-07T01:45:27.543Z,13.69
2018-11-07T01:47:55.089Z,13.29
2018-11-07T01:50:22.659Z,13.67
2018-11-07T01:52:59.833Z,13.68
2018-11-07T01:55:27.440Z,13.73
2018-11-07T01:57:58.024Z,13.53
2018-11-07T02:00:25.622Z,13.57
2018-11-07T02:02:53.168Z,13.47
2018-11-07T02:05:20.759Z,13.30
2018-11-07T02:07:48.309Z,13.38
2018-11-07T02:10:15.930Z,13.37
2018-11-07T02:12:43.468Z,13.09
2018-11-07T02:15:11.641Z,13.03
2018-11-07T02:17:39.238Z,13.27
2018-11-07T02:20:06.819Z,13.20
2018-11-07T02:22:34.455Z,13.18
2018-11-07T02:25:02.040Z,13.25
2018-11-07T02:27:36.728Z,13.26
2018-11-07T02:30:04.334Z,13.26
2018-11-07T02:32:31.888Z,13.12
2018-11-07T02:34:59.485Z,13.12
2018-11-07T02:37:30.437Z,13.05
2018-11-07T02:39:57.986Z,12.96
2018-11-07T02:42:25.563Z,13.25
2018-11-07T02:44:53.084Z,12.76
2018-11-07T02:47:21.708Z,12.79
2018-11-07T02:49:49.303Z,12.94
2018-11-07T02:52:16.891Z,12.97
2018-11-07T02:54:44.428Z,13.14
2018-11-07T02:57:12.006Z,13.06
2018-11-07T02:59:39.593Z,13.14
2018-11-07T03:02:08.419Z,12.77
2018-11-07T03:04:36.041Z,12.59
2018-11-07T03:07:03.606Z,12.83
2018-11-07T03:09:41.377Z,13.04
2018-11-07T03:12:09.510Z,12.81
2018-11-07T03:14:37.080Z,13.23
2018-11-07T03:17:06.775Z,13.27
2018-11-07T03:19:34.296Z,13.14
2018-11-07T03:22:01.823Z,13.38
2018-11-07T03:24:29.413Z,13.11
2018-11-07T03:26:57.000Z,13.20
2018-11-07T03:29:24.559Z,13.16
2018-11-07T03:31:52.356Z,13.26
2018-11-07T03:34:19.897Z,13.08
2018-11-07T03:36:47.489Z,13.23
2018-11-07T03:39:15.038Z,13.02
2018-11-07T03:41:42.645Z,13.21
2018-11-07T03:44:10.208Z,13.07
2018-11-07T03:46:37.769Z,13.26
2018-11-07T03:49:05.329Z,13.36
2018-11-07T03:51:32.910Z,13.34
2018-11-07T03:54:00.468Z,13.28
2018-11-07T03:56:28.006Z,13.30
2018-11-07T03:58:55.611Z,13.44
2018-11-07T04:01:23.155Z,13.47
2018-11-07T04:03:51.236Z,13.43
2018-11-07T04:06:18.820Z,13.28
2018-11-07T04:08:46.378Z,13.40
2018-11-07T04:11:13.960Z,13.35
2018-11-07T04:13:41.522Z,13.22
2018-11-07T04:16:09.114Z,13.23
2018-11-07T04:18:36.726Z,13.35
2018-11-07T04:21:04.320Z,13.44
2018-11-07T04:23:31.996Z,13.39
2018-11-07T04:26:07.887Z,13.36
2018-11-07T04:28:35.453Z,13.29
2018-11-07T04:31:03.067Z,13.34
2018-11-07T04:33:30.716Z,13.36
2018-11-07T04:35:58.303Z,13.31
2018-11-07T04:38:28.927Z,13.12
2018-11-07T04:40:56.445Z,13.12
2018-11-07T04:43:24.020Z,13.18
2018-11-07T04:45:51.594Z,13.27
2018-11-07T04:48:19.192Z,13.21
2018-11-07T04:50:46.732Z,13.24
2018-11-07T04:53:14.306Z,13.20
2018-11-07T04:55:41.906Z,13.08
2018-11-07T04:58:09.448Z,13.03
2018-11-07T05:00:37.064Z,13.06
2018-11-07T05:03:04.607Z,13.02
2018-11-07T05:05:32.221Z,13.09
2018-11-07T05:07:59.753Z,13.00
2018-11-07T05:10:27.335Z,12.98
2018-11-07T05:12:54.852Z,12.99
2018-11-07T05:15:22.468Z,12.44
2018-11-07T05:17:49.998Z,12.48
2018-11-07T05:20:28.628Z,12.17
2018-11-07T05:22:56.185Z,12.48
2018-11-07T05:25:23.790Z,12.55
2018-11-07T05:27:51.469Z,12.68
2018-11-07T05:30:19.072Z,12.44
2018-11-07T05:32:46.676Z,12.08
2018-11-07T05:35:14.273Z,12.46
2018-11-07T05:37:42.359Z,12.49
2018-11-07T05:40:09.906Z,12.41
2018-11-07T05:42:37.504Z,12.35
2018-11-07T05:45:05.092Z,12.51
2018-11-07T05:47:32.666Z,12.45
2018-11-07T05:50:00.252Z,12.04
2018-11-07T05:52:27.791Z,12.17
2018-11-07T05:54:55.401Z,12.38
2018-11-07T05:57:22.930Z,12.44
2018-11-07T05:59:50.439Z,12.49
2018-11-07T06:02:18.019Z,12.41
2018-11-07T06:04:45.570Z,12.38
2018-11-07T06:07:13.150Z,12.38
2018-11-07T06:09:40.692Z,12.32
2018-11-07T06:12:08.291Z,12.48
2018-11-07T06:14:47.649Z,12.35
2018-11-07T06:17:15.226Z,12.15
2018-11-07T06:19:42.811Z,12.36
2018-11-07T06:22:10.367Z,12.38
2018-11-07T06:24:38.059Z,12.14
2018-11-07T06:27:05.590Z,12.23
2018-11-07T06:29:33.210Z,12.29
2018-11-07T06:32:00.796Z,12.29
2018-11-07T06:34:28.384Z,12.37
2018-11-07T06:36:55.960Z,12.31
2018-11-07T06:39:23.531Z,12.05
2018-11-07T06:41:51.164Z,12.28
2018-11-07T06:44:18.785Z,12.15
2018-11-07T06:46:46.812Z,12.05
2018-11-07T06:49:14.796Z,12.19
2018-11-07T06:51:46.805Z,12.06
2018-11-07T06:54:18.666Z,12.06
2018-11-07T06:56:47.406Z,11.95
2018-11-07T06:59:16.101Z,12.04
2018-11-07T07:01:44.178Z,12.13
2018-11-07T07:04:15.822Z,12.17
2018-11-07T07:06:44.424Z,12.14
2018-11-07T07:09:12.887Z,12.04
2018-11-07T07:11:41.118Z,12.05
2018-11-07T07:14:08.674Z,12.15
2018-11-07T07:16:36.292Z,12.24
2018-11-07T07:19:03.902Z,12.27
2018-11-07T07:21:31.515Z,12.18
2018-11-07T07:23:59.082Z,12.01
2018-11-07T07:26:26.671Z,12.15
2018-11-07T07:28:54.224Z,11.97
2018-11-07T07:31:26.596Z,11.87
2018-11-07T07:33:54.152Z,12.16
2018-11-07T07:36:21.939Z,12.17
2018-11-07T07:38:49.535Z,12.05
2018-11-07T07:41:17.116Z,12.27
2018-11-07T07:43:44.662Z,12.26
2018-11-07T07:46:12.282Z,12.14
2018-11-07T07:48:39.828Z,12.27
2018-11-07T07:51:07.431Z,12.03
2018-11-07T07:53:34.964Z,12.01
2018-11-07T07:56:03.827Z,12.27
2018-11-07T07:58:31.753Z,12.35
2018-11-07T08:00:59.335Z,12.41
2018-11-07T08:03:27.057Z,12.44
2018-11-07T08:05:54.618Z,12.44
2018-11-07T08:08:22.225Z,12.48
2018-11-07T08:10:49.848Z,12.43
2018-11-07T08:13:17.494Z,12.56
2018-11-07T08:15:45.021Z,12.74
2018-11-07T08:18:12.685Z,12.64
2018-11-07T08:20:40.324Z,12.67
2018-11-07T08:23:08.039Z,12.61
2018-11-07T08:25:40.750Z,12.76
2018-11-07T08:28:08.523Z,12.74
2018-11-07T08:30:37.025Z,12.76
2018-11-07T08:33:04.578Z,12.73
2018-11-07T08:35:34.479Z,12.78
2018-11-07T08:38:02.097Z,12.96
2018-11-07T08:40:29.714Z,12.91
2018-11-07T08:42:57.694Z,13.10
2018-11-07T08:45:25.282Z,12.98
2018-11-07T08:47:53.175Z,13.12
2018-11-07T08:50:20.943Z,13.29
2018-11-07T08:52:48.718Z,13.24
2018-11-07T08:55:16.296Z,13.27
2018-11-07T08:57:45.138Z,13.19
2018-11-07T09:00:12.770Z,13.15
2018-11-07T09:02:40.500Z,13.36
2018-11-07T09:05:08.185Z,13.35
2018-11-07T09:07:35.867Z,13.52
2018-11-07T09:10:11.997Z,13.50
2018-11-07T09:12:39.709Z,13.55
2018-11-07T09:15:07.386Z,13.55
2018-11-07T09:17:35.120Z,13.61
2018-11-07T09:20:17.709Z,13.70
2018-11-07T09:22:45.445Z,13.63
2018-11-07T09:25:13.063Z,13.73
2018-11-07T09:27:40.782Z,13.78
2018-11-07T09:30:08.596Z,13.84
2018-11-07T09:32:36.225Z,13.78
2018-11-07T09:35:03.925Z,13.96
2018-11-07T09:37:31.874Z,14.03
2018-11-07T09:40:01.210Z,14.01
2018-11-07T09:42:29.451Z,14.00
2018-11-07T09:44:57.291Z,14.11
2018-11-07T09:47:24.990Z,14.03
2018-11-07T09:49:52.598Z,14.00
2018-11-07T09:52:20.301Z,14.13
2018-11-07T09:54:47.842Z,14.20
2018-11-07T09:57:15.661Z,14.23
2018-11-07T09:59:43.420Z,14.29
2018-11-07T10:02:11.145Z,14.36
2018-11-07T10:04:46.024Z,14.36
2018-11-07T10:07:13.680Z,14.39
2018-11-07T10:09:41.277Z,14.49
2018-11-07T10:12:08.951Z,14.66
2018-11-07T10:14:36.632Z,14.52
2018-11-07T10:17:04.408Z,14.53
2018-11-07T10:19:32.027Z,14.56
2018-11-07T10:22:00.299Z,14.80
2018-11-07T10:24:27.933Z,14.66
2018-11-07T10:26:55.673Z,14.83
2018-11-07T10:29:23.575Z,14.80
2018-11-07T10:31:50.945Z,14.87
2018-11-07T10:34:18.504Z,14.97
2018-11-07T10:36:46.650Z,15.02
2018-11-07T10:39:14.257Z,15.05
2018-11-07T10:41:41.848Z,15.10
2018-11-07T10:44:09.420Z,15.17
2018-11-07T10:46:37.056Z,15.15
2018-11-07T10:49:04.696Z,15.15
2018-11-07T10:51:32.336Z,15.16
2018-11-07T10:54:00.051Z,15.10
2018-11-07T10:56:27.841Z,15.12
2018-11-07T10:59:02.685Z,15.15
2018-11-07T11:01:30.268Z,15.12
2018-11-07T11:03:57.889Z,15.24
2018-11-07T11:06:25.559Z,15.22
2018-11-07T11:08:53.125Z,15.42
2018-11-07T11:11:20.787Z,15.42
2018-11-07T11:13:48.400Z,15.62
2018-11-07T11:16:15.993Z,15.68
2018-11-07T11:18:43.596Z,15.68
2018-11-07T11:21:11.193Z,15.64
2018-11-07T11:23:38.766Z,15.81
2018-11-07T11:26:06.345Z,16.06
2018-11-07T11:28:33.966Z,15.97
2018-11-07T11:31:01.570Z,15.89
2018-11-07T11:33:29.192Z,15.63
2018-11-07T11:35:56.756Z,15.55
2018-11-07T11:38:24.489Z,15.74
2018-11-07T11:40:52.129Z,15.68
2018-11-07T11:43:19.709Z,15.61
2018-11-07T11:45:47.680Z,15.81
2018-11-07T11:48:15.285Z,15.99
2018-11-07T11:50:42.886Z,16.10
2018-11-07T11:53:11.010Z,16.02
2018-11-07T11:55:38.653Z,15.91
2018-11-07T11:58:06.189Z,15.77
2018-11-07T12:00:33.882Z,15.93
2018-11-07T12:03:01.456Z,16.17
2018-11-07T12:05:29.156Z,16.33
2018-11-07T12:07:57.053Z,16.40
2018-11-07T12:10:24.837Z,16.48
2018-11-07T12:12:52.457Z,16.58
2018-11-07T12:15:20.384Z,16.71
2018-11-07T12:17:48.210Z,16.74
2018-11-07T12:20:16.044Z,16.65
2018-11-07T12:22:43.677Z,16.70
2018-11-07T12:25:11.636Z,16.62
2018-11-07T12:27:39.573Z,16.70
2018-11-07T12:30:07.557Z,16.74
2018-11-07T12:32:35.458Z,16.63
2018-11-07T12:35:03.509Z,16.53
2018-11-07T12:37:31.408Z,16.52
2018-11-07T12:39:59.096Z,16.73
2018-11-07T12:42:27.060Z,16.81
2018-11-07T12:44:54.840Z,16.96
2018-11-07T12:47:22.468Z,17.03
2018-11-07T12:49:50.431Z,17.16
2018-11-07T12:52:18.089Z,17.21
2018-11-07T12:54:46.706Z,17.24
2018-11-07T12:57:14.445Z,17.19
2018-11-07T12:59:42.061Z,17.20
2018-11-07T13:02:09.734Z,17.09
2018-11-07T13:04:37.516Z,17.19
2018-11-07T13:07:05.186Z,17.04
2018-11-07T13:09:38.107Z,17.07
2018-11-07T13:12:05.707Z,16.99
2018-11-07T13:14:33.329Z,17.20
2018-11-07T13:17:00.897Z,17.20
2018-11-07T13:19:28.566Z,17.16
2018-11-07T13:21:56.171Z,17.22
2018-11-07T13:24:23.688Z,17.01
2018-11-07T13:26:51.300Z,17.08
2018-11-07T13:29:18.862Z,17.16
2018-11-07T13:31:46.495Z,17.11
2018-11-07T13:34:14.102Z,17.17
2018-11-07T13:36:41.834Z,17.16
2018-11-07T13:39:09.873Z,17.13
2018-11-07T13:41:37.143Z,17.38
2018-11-07T13:44:05.062Z,17.19
2018-11-07T13:46:32.693Z,17.09
2018-11-07T13:49:00.222Z,17.13
2018-11-07T13:51:28.093Z,17.05
2018-11-07T13:53:55.820Z,16.88
2018-11-07T13:56:23.497Z,16.98
2018-11-07T13:58:51.039Z,17.00
2018-11-07T14:01:18.733Z,16.94
2018-11-07T14:03:46.368Z,16.81
2018-11-07T14:06:14.046Z,16.68
2018-11-07T14:08:41.881Z,16.84
2018-11-07T14:11:11.242Z,16.67
2018-11-07T14:13:38.945Z,16.88
2018-11-07T14:16:06.628Z,16.66
2018-11-07T14:18:48.296Z,16.59
2018-11-07T14:21:15.971Z,16.73
2018-11-07T14:23:43.696Z,16.66
2018-11-07T14:26:19.387Z,16.45
2018-11-07T14:28:47.396Z,16.23
2018-11-07T14:31:15.071Z,16.51
2018-11-07T14:34:20.475Z,16.44
2018-11-07T14:36:49.652Z,16.48
2018-11-07T14:39:17.369Z,16.36
2018-11-07T14:41:44.896Z,16.47
2018-11-07T14:44:12.495Z,16.29
2018-11-07T14:46:40.142Z,16.35
2018-11-07T14:49:07.783Z,16.24
2018-11-07T14:51:35.519Z,15.98
2018-11-07T14:54:03.846Z,16.14
2018-11-07T14:56:31.513Z,16.15
2018-11-07T14:59:09.170Z,16.01
2018-11-07T15:01:37.062Z,16.04
2018-11-07T15:04:04.679Z,16.05
2018-11-07T15:06:32.244Z,16.02
2018-11-07T15:08:59.863Z,16.23
2018-11-07T15:11:27.572Z,16.16
2018-11-07T15:13:55.007Z,16.19
2018-11-07T15:16:22.602Z,16.29
2018-11-07T15:18:50.196Z,16.19
2018-11-07T15:21:17.781Z,16.15
2018-11-07T15:23:45.317Z,16.17
2018-11-07T15:26:12.910Z,16.28
2018-11-07T15:28:40.475Z,16.29
2018-11-07T15:31:08.093Z,16.32
2018-11-07T15:33:35.784Z,16.31
2018-11-07T15:36:03.410Z,16.02
2018-11-07T15:38:30.922Z,16.22
2018-11-07T15:40:58.496Z,16.16
2018-11-07T15:43:26.112Z,16.06
2018-11-07T15:45:53.647Z,15.79
2018-11-07T15:48:21.222Z,16.04
2018-11-07T15:50:48.854Z,16.06
2018-11-07T15:53:21.478Z,15.82
2018-11-07T15:55:49.111Z,15.96
2018-11-07T15:58:16.671Z,16.02
2018-11-07T16:00:44.263Z,15.91
2018-11-07T16:03:11.815Z,15.79
2018-11-07T16:05:39.406Z,15.66
2018-11-07T16:08:06.934Z,15.76
2018-11-07T16:10:34.497Z,15.58
2018-11-07T16:13:02.137Z,15.49
2018-11-07T16:15:29.784Z,15.66
2018-11-07T16:17:57.264Z,15.51
2018-11-07T16:20:24.834Z,15.62
2018-11-07T16:22:52.461Z,15.51
2018-11-07T16:25:20.024Z,15.34
2018-11-07T16:27:47.581Z,15.29
2018-11-07T16:30:15.157Z,15.31
2018-11-07T16:32:42.698Z,14.86
2018-11-07T16:35:10.225Z,14.98
2018-11-07T16:37:37.840Z,15.18
2018-11-07T16:40:05.397Z,15.36
2018-11-07T16:42:32.995Z,15.49
2018-11-07T16:45:00.616Z,15.45
2018-11-07T16:47:38.021Z,15.42
2018-11-07T16:50:05.717Z,15.35
2018-11-07T16:52:33.328Z,15.34
2018-11-07T16:55:00.965Z,15.34
2018-11-07T16:57:28.566Z,15.29
2018-11-07T16:59:56.146Z,15.32
2018-11-07T17:02:23.730Z,15.33
2018-11-07T17:04:51.298Z,15.28
2018-11-07T17:07:18.963Z,15.05
2018-11-07T17:09:46.487Z,15.04
2018-11-07T17:12:14.012Z,14.96
2018-11-07T17:14:41.641Z,14.80
2018-11-07T17:17:09.184Z,15.02
2018-11-07T17:19:36.921Z,14.88
2018-11-07T17:22:04.682Z,14.64
2018-11-07T17:24:32.447Z,14.69
2018-11-07T17:26:59.891Z,14.87
2018-11-07T17:29:27.508Z,14.70
2018-11-07T17:31:55.072Z,14.85
2018-11-07T17:34:22.607Z,14.61
2018-11-07T17:36:50.135Z,14.66
2018-11-07T17:39:17.707Z,14.70
2018-11-07T17:41:46.061Z,14.84
2018-11-07T17:44:13.776Z,14.74
2018-11-07T17:46:41.322Z,14.20
2018-11-07T17:49:08.910Z,14.56
2018-11-07T17:51:36.459Z,14.66
2018-11-07T17:54:04.028Z,14.59
2018-11-07T17:56:31.624Z,14.58
2018-11-07T17:58:59.229Z,14.72
2018-11-07T18:01:26.752Z,14.61
2018-11-07T18:03:54.351Z,14.79
2018-11-07T18:06:21.891Z,14.64
2018-11-07T18:08:49.505Z,14.64
2018-11-07T18:11:17.023Z,14.52
2018-11-07T18:13:44.712Z,14.67
2018-11-07T18:16:12.254Z,14.53
2018-11-07T18:18:39.840Z,14.56
2018-11-07T18:21:07.582Z,14.38
2018-11-07T18:23:35.163Z,14.50
2018-11-07T18:26:02.728Z,14.17
2018-11-07T18:28:30.304Z,14.19
2018-11-07T18:30:57.880Z,14.47
2018-11-07T18:33:25.492Z,13.82
2018-11-07T18:35:53.204Z,14.11
2018-11-07T18:38:20.662Z,14.01
2018-11-07T18:40:48.238Z,14.13
2018-11-07T18:43:15.875Z,14.09
2018-11-07T18:45:43.442Z,14.11
2018-11-07T18:48:10.983Z,14.16
2018-11-07T18:50:38.649Z,14.13
2018-11-07T18:53:06.147Z,13.74
2018-11-07T18:55:33.755Z,13.85
2018-11-07T18:58:02.106Z,13.71
2018-11-07T19:00:29.758Z,13.85
2018-11-07T19:02:57.712Z,14.03
2018-11-07T19:05:25.470Z,13.82
2018-11-07T19:07:53.097Z,13.74
2018-11-07T19:10:20.642Z,13.93
2018-11-07T19:12:48.201Z,13.81
2018-11-07T19:15:15.785Z,13.87
2018-11-07T19:17:43.314Z,13.95
2018-11-07T19:20:13.512Z,13.83
2018-11-07T19:22:42.333Z,13.75
2018-11-07T19:25:10.942Z,13.66
2018-11-07T19:27:38.539Z,13.68
2018-11-07T19:30:06.106Z,13.78
2018-11-07T19:32:33.687Z,13.52
2018-11-07T19:35:01.282Z,13.64
2018-11-07T19:37:28.862Z,13.68
2018-11-07T19:39:56.444Z,13.67
2018-11-07T19:42:24.006Z,13.59
2018-11-07T19:44:51.669Z,13.82
2018-11-07T19:47:19.241Z,13.61
2018-11-07T19:49:46.776Z,13.69
2018-11-07T19:52:14.332Z,13.66
2018-11-07T19:54:41.859Z,13.55
2018-11-07T19:57:09.437Z,13.72
2018-11-07T19:59:37.006Z,13.75
2018-11-07T20:02:04.602Z,13.60
2018-11-07T20:04:32.158Z,13.61
2018-11-07T20:06:59.738Z,13.72
2018-11-07T20:09:27.284Z,13.57
2018-11-07T20:11:54.880Z,13.88
2018-11-07T20:14:33.425Z,13.94
2018-11-07T20:17:01.286Z,13.85
2018-11-07T20:19:28.883Z,13.69
2018-11-07T20:21:56.428Z,13.75
2018-11-07T20:24:24.025Z,13.81
2018-11-07T20:26:51.568Z,13.77
2018-11-07T20:29:19.138Z,13.90
2018-11-07T20:31:46.707Z,13.92
2018-11-07T20:34:14.234Z,14.04
2018-11-07T20:36:41.799Z,13.91
2018-11-07T20:39:09.435Z,14.00
2018-11-07T20:41:37.084Z,14.07
2018-11-07T20:44:04.537Z,13.98
2018-11-07T20:46:32.122Z,14.25
2018-11-07T20:48:59.703Z,14.10
2018-11-07T20:51:27.202Z,13.99
2018-11-07T20:53:54.778Z,13.97
2018-11-07T20:56:22.363Z,14.08
2018-11-07T20:58:49.945Z,14.12
2018-11-07T21:01:17.617Z,14.09
2018-11-07T21:03:45.149Z,14.12
2018-11-07T21:06:12.716Z,14.34
2018-11-07T21:08:40.873Z,14.26
2018-11-07T21:11:08.482Z,14.13
2018-11-07T21:13:36.024Z,13.86
2018-11-07T21:16:03.609Z,14.16
2018-11-07T21:18:31.188Z,14.06
2018-11-07T21:20:58.771Z,13.99
2018-11-07T21:23:26.363Z,13.88
2018-11-07T21:25:53.892Z,13.88
2018-11-07T21:28:21.496Z,14.09
2018-11-07T21:30:49.157Z,13.74
2018-11-07T21:33:16.757Z,13.77
2018-11-07T21:35:45.607Z,13.72
2018-11-07T21:38:13.603Z,13.88
2018-11-07T21:40:41.520Z,13.82
2018-11-07T21:43:09.161Z,14.01
2018-11-07T21:45:37.137Z,13.95
2018-11-07T21:48:05.075Z,14.00
2018-11-07T21:50:33.094Z,13.98
2018-11-07T21:53:00.957Z,13.97
2018-11-07T21:55:28.968Z,13.68
2018-11-07T21:57:56.696Z,13.76
2018-11-07T22:00:24.640Z,14.02
2018-11-07T22:02:52.673Z,13.45
2018-11-07T22:05:20.582Z,13.87
2018-11-07T22:07:48.569Z,13.65
2018-11-07T22:10:16.535Z,13.87
2018-11-07T22:12:44.469Z,13.65
2018-11-07T22:15:13.075Z,13.73
2018-11-07T22:17:41.981Z,13.91
2018-11-07T22:20:10.054Z,14.10
2018-11-07T22:22:38.141Z,14.00
2018-11-07T22:25:06.020Z,14.00
2018-11-07T22:27:33.908Z,13.87
2018-11-07T22:30:01.805Z,14.01
2018-11-07T22:32:29.811Z,14.08
2018-11-07T22:34:57.432Z,14.00
2018-11-07T22:37:25.024Z,13.76
2018-11-07T22:39:52.614Z,13.97
2018-11-07T22:42:20.175Z,14.05
2018-11-07T22:44:47.776Z,13.84
2018-11-07T22:47:23.191Z,13.54
2018-11-07T22:49:50.774Z,13.90
2018-11-07T22:52:18.361Z,14.04
2018-11-07T22:54:45.949Z,13.66
2018-11-07T22:57:13.475Z,13.66
2018-11-07T22:59:41.074Z,13.76
2018-11-07T23:02:08.602Z,13.69
2018-11-07T23:04:36.180Z,13.77
2018-11-07T23:07:03.779Z,13.37
2018-11-07T23:09:31.314Z,13.41
2018-11-07T23:11:58.888Z,13.65
2018-11-07T23:14:26.444Z,13.61
2018-11-07T23:16:54.008Z,13.44
2018-11-07T23:19:21.589Z,13.52
2018-11-07T23:21:49.212Z,13.55
2018-11-07T23:24:16.796Z,13.59
2018-11-07T23:26:44.326Z,13.68
2018-11-07T23:29:11.904Z,13.72
2018-11-07T23:31:39.618Z,13.74
2018-11-07T23:34:07.168Z,13.69
2018-11-07T23:36:34.757Z,13.72
2018-11-07T23:39:02.322Z,13.66
2018-11-07T23:41:30.364Z,13.64
2018-11-07T23:43:57.929Z,13.81
2018-11-07T23:46:25.527Z,13.78
2018-11-07T23:48:53.056Z,13.54
2018-11-07T23:51:20.659Z,13.43
2018-11-07T23:53:48.185Z,13.53
2018-11-07T23:56:15.806Z,13.38
2018-11-07T23:58:43.360Z,13.44
